Time;durP1;ratioP1;P1;durP2;ratioP2;P2;SDS_P1;SDS_P2;PMS_P1;PMS_P2;Temp;Humidity;BMP_temperature;BMP_pressure;BME280_temperature;BME280_humidity;BME280_pressure;Samples;Min_cycle;Max_cycle;Signal;HPM_P1;HPM_P2
2021/12/22 00:01:32;;;;;;;24.98;12.25;;;-3.30;99.90;;;;;;5090417;28;20087;-64
2021/12/22 00:03:58;;;;;;;21.45;11.73;;;-3.30;99.90;;;;;;5110642;28;20044;-64
2021/12/22 00:06:26;;;;;;;23.90;13.18;;;-3.40;99.90;;;;;;5108095;28;20040;-64
2021/12/22 00:08:52;;;;;;;22.15;12.82;;;-3.40;99.90;;;;;;5109022;28;20040;-64
2021/12/22 00:11:19;;;;;;;23.15;12.23;;;-3.50;99.90;;;;;;5109186;28;20139;-64
2021/12/22 00:13:45;;;;;;;22.65;12.95;;;-3.50;99.90;;;;;;5105305;28;20083;-64
2021/12/22 00:16:11;;;;;;;21.85;12.68;;;-3.50;99.90;;;;;;5108923;28;20036;-64
2021/12/22 00:18:37;;;;;;;24.08;13.90;;;-3.50;99.90;;;;;;5108085;28;20051;-64
2021/12/22 00:21:03;;;;;;;26.40;13.45;;;-3.50;99.90;;;;;;5113386;28;20040;-64
2021/12/22 00:23:30;;;;;;;26.05;13.30;;;-3.50;99.90;;;;;;5090190;28;20109;-64
2021/12/22 00:25:56;;;;;;;28.92;14.00;;;-3.50;99.90;;;;;;5108877;28;20074;-64
2021/12/22 00:28:22;;;;;;;28.30;14.43;;;-3.60;99.90;;;;;;5087696;28;20079;-64
2021/12/22 00:30:50;;;;;;;26.98;13.48;;;-3.70;99.90;;;;;;5107461;28;20040;-64
2021/12/22 00:33:17;;;;;;;33.25;17.48;;;-3.70;99.90;;;;;;5090425;28;20043;-64
2021/12/22 00:35:45;;;;;;;31.83;16.13;;;-3.70;99.90;;;;;;5108152;28;20048;-64
2021/12/22 00:38:19;;;;;;;29.02;14.00;;;-3.70;99.90;;;;;;5110392;28;20040;-65
2021/12/22 00:40:47;;;;;;;25.58;14.27;;;-3.70;99.90;;;;;;5109013;28;20103;-64
2021/12/22 00:43:13;;;;;;;25.02;13.98;;;-3.70;99.90;;;;;;5111686;28;20047;-64
2021/12/22 00:45:40;;;;;;;26.38;14.65;;;-3.70;99.90;;;;;;5109290;28;20447;-64
2021/12/22 00:48:08;;;;;;;21.90;12.85;;;-3.70;99.90;;;;;;5107378;28;20527;-64
2021/12/22 00:50:34;;;;;;;27.52;13.75;;;-3.70;99.90;;;;;;5109524;28;20563;-64
2021/12/22 00:53:00;;;;;;;21.58;13.02;;;-3.70;99.90;;;;;;5092663;28;20059;-64
2021/12/22 00:55:27;;;;;;;23.67;14.63;;;-3.70;99.90;;;;;;5110551;28;20024;-64
2021/12/22 00:57:53;;;;;;;28.30;14.63;;;-3.80;99.90;;;;;;5107150;28;20035;-64
2021/12/22 01:00:22;;;;;;;28.65;15.40;;;-3.90;99.90;;;;;;5108977;28;20534;-64
2021/12/22 01:02:47;;;;;;;26.77;14.45;;;-4.00;99.90;;;;;;5109070;28;20067;-64
2021/12/22 01:05:15;;;;;;;27.13;13.85;;;-4.00;99.90;;;;;;5105604;28;20707;-64
2021/12/22 01:07:43;;;;;;;33.75;15.15;;;-4.00;99.90;;;;;;5106387;28;20115;-64
2021/12/22 01:10:10;;;;;;;30.55;14.95;;;-4.10;99.90;;;;;;5109566;28;20043;-64
2021/12/22 01:12:36;;;;;;;29.25;16.65;;;-4.10;99.90;;;;;;5104670;28;20070;-64
2021/12/22 01:15:04;;;;;;;27.77;14.27;;;-4.10;99.90;;;;;;5110085;28;20126;-64
2021/12/22 01:17:37;;;;;;;24.38;14.38;;;-4.10;99.90;;;;;;5108764;28;20105;-64
2021/12/22 01:20:12;;;;;;;29.23;14.63;;;-4.10;99.90;;;;;;5104312;28;20075;-64
2021/12/22 01:25:09;;;;;;;29.20;14.60;;;-4.10;99.90;;;;;;5108594;28;20408;-64
2021/12/22 01:27:40;;;;;;;23.10;13.00;;;-4.10;99.90;;;;;;5107632;28;20041;-64
2021/12/22 01:30:10;;;;;;;25.63;13.30;;;-4.00;99.90;;;;;;5104756;28;20060;-64
2021/12/22 01:32:36;;;;;;;18.93;11.43;;;-4.00;99.90;;;;;;5109520;28;20147;-64
2021/12/22 01:35:05;;;;;;;23.15;13.13;;;-4.00;99.90;;;;;;5106651;28;20313;-64
2021/12/22 01:37:31;;;;;;;23.55;13.25;;;-4.00;99.90;;;;;;5108300;28;20070;-64
2021/12/22 01:39:56;;;;;;;24.15;12.65;;;-3.90;99.90;;;;;;5108568;28;20056;-64
2021/12/22 01:42:22;;;;;;;25.23;13.52;;;-3.90;99.90;;;;;;5109442;28;20043;-64
2021/12/22 01:50:17;;;;;;;28.13;14.13;;;-3.80;99.90;;;;;;5101217;28;20046;-64
2021/12/22 01:52:43;;;;;;;24.00;13.77;;;-3.80;99.90;;;;;;5102582;28;20497;-64
2021/12/22 01:55:30;;;;;;;22.65;13.65;;;-3.80;99.90;;;;;;5087419;28;20051;-64
2021/12/22 01:58:00;;;;;;;19.50;11.43;;;-3.70;99.90;;;;;;5105131;28;20036;-64
2021/12/22 02:00:26;;;;;;;15.63;9.23;;;-3.70;99.90;;;;;;5088868;28;20097;-64
2021/12/22 02:02:53;;;;;;;22.80;13.02;;;-3.70;99.90;;;;;;5108627;28;20044;-64
2021/12/22 02:05:19;;;;;;;25.60;13.45;;;-3.70;99.90;;;;;;5107743;28;20036;-64
2021/12/22 02:07:45;;;;;;;20.25;12.07;;;-3.70;99.90;;;;;;5093957;28;20059;-64
2021/12/22 02:12:50;;;;;;;22.58;13.63;;;-3.50;99.90;;;;;;5087880;28;20075;-64
2021/12/22 02:15:16;;;;;;;24.05;13.63;;;-3.40;99.90;;;;;;5109715;28;20052;-64
2021/12/22 02:17:42;;;;;;;23.75;13.65;;;-3.20;99.90;;;;;;5093985;28;20100;-64
2021/12/22 02:20:09;;;;;;;19.10;11.98;;;-3.10;99.90;;;;;;5110911;28;20047;-64
2021/12/22 02:22:36;;;;;;;19.95;11.55;;;-3.20;99.90;;;;;;5109296;28;20169;-64
2021/12/22 02:25:11;;;;;;;20.10;12.32;;;-3.40;99.90;;;;;;5096753;28;20381;-64
2021/12/22 02:27:43;;;;;;;22.48;13.38;;;-3.50;99.90;;;;;;5089583;28;20054;-64
2021/12/22 02:30:16;;;;;;;21.80;13.40;;;-3.60;99.90;;;;;;5107670;28;20032;-65
2021/12/22 02:35:40;;;;;;;25.05;12.60;;;-3.70;99.90;;;;;;5108966;28;20043;-64
2021/12/22 02:38:13;;;;;;;25.45;13.80;;;-3.70;99.90;;;;;;5073330;28;20046;-65
2021/12/22 02:40:38;;;;;;;24.80;13.15;;;-3.80;99.90;;;;;;5108599;28;20526;-64
2021/12/22 02:43:05;;;;;;;26.02;13.43;;;-3.70;99.90;;;;;;5093677;28;20052;-64
2021/12/22 02:45:36;;;;;;;24.65;13.18;;;-3.80;99.90;;;;;;5111625;28;20070;-64
2021/12/22 02:48:04;;;;;;;24.17;13.32;;;-3.70;99.90;;;;;;5110233;28;20071;-64
2021/12/22 02:50:32;;;;;;;29.73;15.18;;;-3.70;99.90;;;;;;5090837;28;20044;-65
2021/12/22 02:53:11;;;;;;;19.38;12.65;;;-3.80;99.90;;;;;;5093378;28;20060;-65
2021/12/22 02:58:45;;;;;;;23.00;13.15;;;-4.00;99.90;;;;;;5107528;28;20044;-64
2021/12/22 03:01:11;;;;;;;18.10;11.57;;;-4.00;99.90;;;;;;5092588;28;20062;-65
2021/12/22 03:06:24;;;;;;;20.25;11.13;;;-4.00;99.90;;;;;;5107065;28;20048;-64
2021/12/22 03:08:50;;;;;;;21.02;12.25;;;-4.00;99.90;;;;;;5090878;28;20078;-65
2021/12/22 03:11:16;;;;;;;19.38;12.52;;;-4.10;99.90;;;;;;5108120;28;20052;-64
2021/12/22 03:13:41;;;;;;;22.30;13.93;;;-4.10;99.90;;;;;;5110279;28;20039;-64
2021/12/22 03:16:07;;;;;;;21.63;12.95;;;-4.10;99.90;;;;;;5109437;28;20043;-65
2021/12/22 03:18:34;;;;;;;20.13;13.15;;;-4.10;99.90;;;;;;5106916;28;20177;-64
2021/12/22 03:21:12;;;;;;;22.92;14.23;;;-4.00;99.90;;;;;;5111596;28;20035;-64
2021/12/22 03:23:37;;;;;;;20.15;13.20;;;-3.90;99.90;;;;;;5108955;28;20044;-64
2021/12/22 03:26:03;;;;;;;19.60;12.85;;;-3.70;99.90;;;;;;5109817;28;20039;-64
2021/12/22 03:28:30;;;;;;;21.17;12.02;;;-3.70;99.90;;;;;;5094118;28;20059;-65
2021/12/22 03:30:58;;;;;;;20.83;11.95;;;-3.70;99.90;;;;;;5110691;28;20048;-64
2021/12/22 03:33:24;;;;;;;19.38;11.90;;;-3.80;99.90;;;;;;5091867;28;20052;-64
2021/12/22 03:35:49;;;;;;;22.25;12.95;;;-3.90;99.90;;;;;;5092594;28;20071;-64
2021/12/22 03:38:16;;;;;;;19.50;12.77;;;-3.90;99.90;;;;;;5107409;28;20047;-65
2021/12/22 03:40:42;;;;;;;21.60;13.80;;;-4.00;99.90;;;;;;5107761;28;20078;-64
2021/12/22 03:43:08;;;;;;;21.50;13.38;;;-4.00;99.90;;;;;;5108951;28;20048;-64
2021/12/22 03:45:33;;;;;;;20.90;11.95;;;-4.00;99.90;;;;;;5088359;28;20047;-64
2021/12/22 03:47:59;;;;;;;16.92;11.40;;;-4.00;99.90;;;;;;5108171;28;20040;-65
2021/12/22 03:50:25;;;;;;;21.63;12.23;;;-4.10;99.90;;;;;;5092967;28;20100;-64
2021/12/22 03:52:51;;;;;;;19.92;13.23;;;-4.20;99.90;;;;;;5111363;28;20042;-65
2021/12/22 03:55:16;;;;;;;19.90;12.90;;;-4.30;99.90;;;;;;5093929;28;20107;-64
2021/12/22 03:57:42;;;;;;;19.88;13.00;;;-4.30;99.90;;;;;;5089857;28;20083;-64
2021/12/22 04:00:11;;;;;;;19.30;12.20;;;-4.30;99.90;;;;;;5111064;28;20043;-64
2021/12/22 04:02:37;;;;;;;20.52;12.85;;;-4.30;99.90;;;;;;5088043;28;20062;-64
2021/12/22 04:05:04;;;;;;;18.75;12.25;;;-4.40;99.90;;;;;;5108820;28;20060;-65
2021/12/22 04:07:31;;;;;;;23.10;13.13;;;-4.40;99.90;;;;;;5089654;28;20074;-64
2021/12/22 04:09:58;;;;;;;19.42;12.85;;;-4.50;99.90;;;;;;5088320;28;20115;-64
2021/12/22 04:12:24;;;;;;;19.63;11.82;;;-4.50;99.90;;;;;;5092096;28;20130;-64
2021/12/22 04:14:49;;;;;;;19.95;12.45;;;-4.50;99.90;;;;;;5090992;28;20079;-64
2021/12/22 04:17:16;;;;;;;20.70;12.93;;;-4.50;99.90;;;;;;5089488;28;20047;-64
2021/12/22 04:19:42;;;;;;;21.38;13.27;;;-4.60;99.90;;;;;;5092469;28;20056;-65
2021/12/22 04:22:08;;;;;;;18.42;12.60;;;-4.50;99.90;;;;;;5111100;28;20086;-64
2021/12/22 04:24:34;;;;;;;17.20;11.40;;;-4.50;99.90;;;;;;5089198;28;20084;-64
2021/12/22 04:27:00;;;;;;;18.30;12.13;;;-4.50;99.90;;;;;;5106851;28;20036;-65
2021/12/22 04:29:25;;;;;;;19.33;11.50;;;-4.60;99.90;;;;;;5110177;28;20047;-65
2021/12/22 04:31:51;;;;;;;18.38;12.00;;;-4.60;99.90;;;;;;5089295;28;20495;-65
2021/12/22 04:34:17;;;;;;;21.48;12.18;;;-4.70;99.90;;;;;;5106396;28;20032;-64
2021/12/22 04:36:43;;;;;;;17.00;11.13;;;-4.70;99.90;;;;;;5107325;28;20581;-64
2021/12/22 04:39:10;;;;;;;20.83;12.27;;;-4.70;99.90;;;;;;5093090;28;20056;-64
2021/12/22 04:41:36;;;;;;;18.15;11.30;;;-4.80;99.90;;;;;;5088038;28;20051;-64
2021/12/22 04:44:02;;;;;;;18.40;11.32;;;-4.80;99.90;;;;;;5089403;28;20044;-64
2021/12/22 04:46:28;;;;;;;17.27;11.07;;;-4.80;99.90;;;;;;5076415;28;20044;-64
2021/12/22 04:48:54;;;;;;;17.48;11.18;;;-4.80;99.90;;;;;;5087686;28;20075;-64
2021/12/22 04:51:25;;;;;;;18.67;10.95;;;-4.80;99.90;;;;;;5087272;28;20040;-64
2021/12/22 04:54:03;;;;;;;20.52;12.55;;;-4.80;99.90;;;;;;5088924;28;20126;-64
2021/12/22 04:56:29;;;;;;;20.95;12.05;;;-4.80;99.90;;;;;;5109595;28;20052;-64
2021/12/22 04:58:55;;;;;;;24.17;13.52;;;-4.80;99.90;;;;;;5090207;28;20051;-64
2021/12/22 05:01:21;;;;;;;19.85;11.93;;;-4.70;99.90;;;;;;5105951;28;20041;-64
2021/12/22 05:03:47;;;;;;;21.60;12.95;;;-4.70;99.90;;;;;;5087299;28;20048;-64
2021/12/22 05:06:13;;;;;;;22.45;12.98;;;-4.60;99.90;;;;;;5088847;28;20098;-64
2021/12/22 05:08:38;;;;;;;20.92;11.85;;;-4.60;99.90;;;;;;5111402;28;20059;-64
2021/12/22 05:11:05;;;;;;;20.48;11.75;;;-4.60;99.90;;;;;;5108671;28;20127;-64
2021/12/22 05:13:33;;;;;;;23.85;13.90;;;-4.60;99.90;;;;;;5110456;28;20102;-65
2021/12/22 05:15:59;;;;;;;25.35;13.07;;;-4.60;99.90;;;;;;5087970;28;20050;-64
2021/12/22 05:18:46;;;;;;;24.65;13.63;;;-4.60;99.90;;;;;;5089042;28;20107;-64
2021/12/22 05:21:10;;;;;;;20.33;13.30;;;-4.60;99.90;;;;;;5089254;28;20074;-64
2021/12/22 05:23:36;;;;;;;21.48;12.45;;;-4.60;99.90;;;;;;5088924;28;20055;-64
2021/12/22 05:26:01;;;;;;;21.15;13.05;;;-4.70;99.90;;;;;;5091468;28;20051;-64
2021/12/22 05:28:27;;;;;;;23.45;14.15;;;-4.70;99.90;;;;;;5090312;28;20114;-64
2021/12/22 05:30:53;;;;;;;22.98;14.32;;;-4.70;99.90;;;;;;5105083;28;20140;-65
2021/12/22 05:33:18;;;;;;;24.98;14.25;;;-4.70;99.90;;;;;;5110621;28;20385;-64
2021/12/22 05:35:44;;;;;;;23.52;13.63;;;-4.70;99.90;;;;;;5075008;28;20076;-65
2021/12/22 05:38:10;;;;;;;26.67;17.10;;;-4.70;99.90;;;;;;5088319;28;20044;-65
2021/12/22 05:40:36;;;;;;;26.95;15.38;;;-4.70;99.90;;;;;;5103968;28;20039;-65
2021/12/22 05:43:02;;;;;;;23.95;14.80;;;-4.70;99.90;;;;;;5109643;28;20092;-64
2021/12/22 05:45:28;;;;;;;24.92;14.38;;;-4.60;99.90;;;;;;5109187;28;20446;-64
2021/12/22 05:47:54;;;;;;;24.92;14.57;;;-4.60;99.90;;;;;;5109438;28;20043;-64
2021/12/22 05:50:21;;;;;;;25.27;14.75;;;-4.60;99.90;;;;;;5089207;28;20109;-64
2021/12/22 05:52:47;;;;;;;28.15;14.57;;;-4.60;99.90;;;;;;5110960;28;20465;-64
2021/12/22 05:55:13;;;;;;;21.08;12.82;;;-4.60;99.90;;;;;;5105773;28;20081;-65
2021/12/22 05:57:38;;;;;;;20.17;11.88;;;-4.70;99.90;;;;;;5086128;28;20067;-64
2021/12/22 06:00:06;;;;;;;20.42;12.38;;;-4.70;99.90;;;;;;5108702;28;20054;-65
2021/12/22 06:02:32;;;;;;;16.67;11.48;;;-4.80;99.90;;;;;;5109052;28;20101;-64
2021/12/22 06:04:58;;;;;;;19.70;11.18;;;-4.90;99.90;;;;;;5070712;28;20056;-64
2021/12/22 06:07:23;;;;;;;22.13;13.70;;;-4.90;99.90;;;;;;5090118;28;20144;-65
2021/12/22 06:09:49;;;;;;;26.15;14.38;;;-5.00;99.90;;;;;;5088065;28;20106;-64
2021/12/22 06:12:15;;;;;;;23.42;13.35;;;-4.90;99.90;;;;;;5086903;28;20045;-65
2021/12/22 06:14:40;;;;;;;22.30;13.50;;;-4.90;99.90;;;;;;5089867;28;20044;-65
2021/12/22 06:17:07;;;;;;;19.83;12.38;;;-4.90;99.90;;;;;;5052619;28;20048;-64
2021/12/22 06:19:32;;;;;;;22.75;13.50;;;-4.90;99.90;;;;;;5064070;28;20649;-65
2021/12/22 06:21:58;;;;;;;21.40;12.73;;;-4.80;99.90;;;;;;5052278;28;20084;-64
2021/12/22 06:24:24;;;;;;;21.83;13.55;;;-4.80;99.90;;;;;;5082568;28;20071;-63
2021/12/22 06:26:49;;;;;;;21.00;12.57;;;-4.90;99.90;;;;;;5074193;28;20044;-65
2021/12/22 06:29:15;;;;;;;22.83;14.20;;;-4.90;99.90;;;;;;5061402;28;20040;-66
2021/12/22 06:31:41;;;;;;;22.70;13.80;;;-4.90;99.90;;;;;;5071095;28;20139;-66
2021/12/22 06:34:07;;;;;;;19.52;12.80;;;-4.80;99.90;;;;;;5082406;28;20036;-65
2021/12/22 06:36:33;;;;;;;21.42;12.70;;;-4.80;99.90;;;;;;5082316;28;20052;-66
2021/12/22 06:38:59;;;;;;;21.88;13.95;;;-4.70;99.90;;;;;;5087858;28;20453;-65
2021/12/22 06:41:25;;;;;;;21.60;13.32;;;-4.70;99.90;;;;;;5080323;28;20040;-65
2021/12/22 06:43:50;;;;;;;26.48;14.52;;;-4.70;99.90;;;;;;5090818;28;20041;-66
2021/12/22 06:46:16;;;;;;;23.77;13.60;;;-4.70;99.90;;;;;;5084264;28;20113;-66
2021/12/22 06:48:42;;;;;;;21.17;13.65;;;-4.60;99.90;;;;;;5090912;28;20048;-66
2021/12/22 06:51:08;;;;;;;23.52;14.02;;;-4.60;99.90;;;;;;5081637;28;20054;-66
2021/12/22 06:53:37;;;;;;;21.77;12.75;;;-4.70;99.90;;;;;;5093257;28;20047;-66
2021/12/22 06:56:03;;;;;;;21.75;12.85;;;-4.70;99.90;;;;;;5088945;28;20435;-65
2021/12/22 06:58:28;;;;;;;23.10;13.73;;;-4.70;99.90;;;;;;5102402;28;20098;-65
2021/12/22 07:00:54;;;;;;;24.27;13.75;;;-4.80;99.90;;;;;;5077362;28;20066;-66
2021/12/22 07:03:20;;;;;;;23.38;14.00;;;-4.80;99.90;;;;;;5088427;28;20074;-66
2021/12/22 07:05:45;;;;;;;22.67;13.23;;;-4.80;99.90;;;;;;5066231;28;20108;-65
2021/12/22 07:08:11;;;;;;;23.02;13.13;;;-4.80;99.90;;;;;;5090903;28;20052;-65
2021/12/22 07:10:37;;;;;;;24.55;13.93;;;-4.80;99.90;;;;;;5085045;28;20048;-66
2021/12/22 07:13:04;;;;;;;23.20;13.10;;;-4.80;99.90;;;;;;5078435;28;20062;-66
2021/12/22 07:15:30;;;;;;;21.75;13.77;;;-4.90;99.90;;;;;;5048871;28;20053;-62
2021/12/22 07:17:56;;;;;;;21.73;13.07;;;-4.90;99.90;;;;;;5068841;28;20044;-62
2021/12/22 07:20:21;;;;;;;25.02;13.63;;;-4.90;99.90;;;;;;5082281;28;20386;-61
2021/12/22 07:22:47;;;;;;;25.27;14.43;;;-5.00;99.90;;;;;;5074603;28;20521;-61
2021/12/22 07:25:15;;;;;;;26.30;15.73;;;-5.00;99.90;;;;;;5096952;28;20048;-63
2021/12/22 07:27:41;;;;;;;25.02;14.68;;;-5.00;99.90;;;;;;5086309;28;20046;-62
2021/12/22 07:30:07;;;;;;;27.83;17.13;;;-4.90;99.90;;;;;;5087816;28;20059;-62
2021/12/22 07:32:33;;;;;;;25.85;15.40;;;-4.90;99.90;;;;;;5085457;28;20072;-63
2021/12/22 07:35:07;;;;;;;24.27;14.00;;;-4.90;99.90;;;;;;5068901;28;20047;-65
2021/12/22 07:37:41;;;;;;;21.30;13.75;;;-4.80;99.90;;;;;;5070303;28;20060;-65
2021/12/22 07:40:18;;;;;;;25.25;16.85;;;-4.90;99.90;;;;;;5085655;28;20368;-64
2021/12/22 07:42:43;;;;;;;29.00;16.40;;;-4.90;99.90;;;;;;5085086;28;20687;-64
2021/12/22 07:45:10;;;;;;;26.98;15.27;;;-4.90;99.90;;;;;;5067154;28;20048;-64
2021/12/22 07:47:36;;;;;;;28.98;15.75;;;-4.80;99.90;;;;;;5089875;28;20071;-65
2021/12/22 07:50:04;;;;;;;27.25;15.00;;;-4.90;99.90;;;;;;5082638;28;20051;-65
2021/12/22 07:52:30;;;;;;;30.38;16.20;;;-4.90;99.90;;;;;;5084175;28;20449;-61
2021/12/22 07:54:57;;;;;;;26.55;15.63;;;-5.00;99.90;;;;;;5092028;28;20059;-61
2021/12/22 07:57:23;;;;;;;29.50;15.57;;;-5.00;99.90;;;;;;5088196;28;20062;-65
2021/12/22 07:59:48;;;;;;;23.75;13.30;;;-5.00;99.90;;;;;;5087227;28;20051;-61
2021/12/22 08:02:14;;;;;;;22.85;14.05;;;-5.00;99.90;;;;;;5081152;28;20040;-61
2021/12/22 08:04:41;;;;;;;28.60;14.50;;;-5.00;99.90;;;;;;5094291;28;20211;-62
2021/12/22 08:07:06;;;;;;;27.30;15.35;;;-5.10;99.90;;;;;;5097509;28;20117;-63
2021/12/22 08:09:32;;;;;;;30.65;16.63;;;-5.00;99.90;;;;;;5082079;28;20579;-63
2021/12/22 08:12:05;;;;;;;29.90;16.10;;;-4.90;99.90;;;;;;5078795;28;20427;-63
2021/12/22 08:14:41;;;;;;;29.25;16.08;;;-4.80;99.90;;;;;;5076354;28;20052;-63
2021/12/22 08:17:08;;;;;;;27.35;15.70;;;-4.80;99.90;;;;;;5069228;28;20040;-62
2021/12/22 08:19:34;;;;;;;34.63;17.83;;;-4.70;99.90;;;;;;5086205;28;20055;-63
2021/12/22 08:22:00;;;;;;;31.02;16.42;;;-4.70;99.90;;;;;;5079569;28;20048;-62
2021/12/22 08:24:26;;;;;;;31.50;15.80;;;-4.60;99.90;;;;;;5075968;28;20055;-62
2021/12/22 08:26:52;;;;;;;31.02;17.02;;;-4.60;99.90;;;;;;5075600;28;20048;-62
2021/12/22 08:29:19;;;;;;;28.80;17.45;;;-4.50;99.90;;;;;;5070833;28;20048;-62
2021/12/22 08:31:45;;;;;;;33.10;17.52;;;-4.50;99.90;;;;;;5073125;28;20055;-63
2021/12/22 08:34:15;;;;;;;29.10;15.90;;;-4.40;99.90;;;;;;5071140;28;20052;-63
2021/12/22 08:39:26;;;;;;;34.35;17.70;;;-4.40;99.90;;;;;;5082439;28;20048;-62
2021/12/22 08:41:52;;;;;;;27.30;16.10;;;-4.30;99.90;;;;;;5071801;28;20052;-62
2021/12/22 08:44:19;;;;;;;26.25;16.23;;;-4.30;99.90;;;;;;5071275;28;20044;-62
2021/12/22 08:46:50;;;;;;;33.13;16.80;;;-4.20;99.90;;;;;;5069597;28;20268;-62
2021/12/22 08:49:20;;;;;;;29.40;16.80;;;-4.10;99.90;;;;;;5071455;28;20125;-62
2021/12/22 08:51:48;;;;;;;29.27;16.08;;;-4.10;99.90;;;;;;5063881;28;20083;-62
2021/12/22 08:54:14;;;;;;;28.65;15.93;;;-4.10;99.90;;;;;;5064716;28;20363;-62
2021/12/22 08:56:40;;;;;;;28.95;16.35;;;-4.10;99.90;;;;;;5068602;28;20056;-62
2021/12/22 08:59:08;;;;;;;28.17;16.48;;;-4.00;99.90;;;;;;5064486;28;20071;-62
2021/12/22 09:01:34;;;;;;;27.50;16.55;;;-3.90;99.90;;;;;;5070172;28;20064;-63
2021/12/22 09:03:59;;;;;;;30.00;16.60;;;-3.90;99.90;;;;;;5066102;28;20055;-62
2021/12/22 09:06:26;;;;;;;29.20;16.75;;;-3.80;99.90;;;;;;5071991;28;20082;-62
2021/12/22 09:08:52;;;;;;;28.85;17.58;;;-3.70;99.90;;;;;;5074998;28;20037;-62
2021/12/22 09:11:19;;;;;;;31.90;18.10;;;-3.70;99.90;;;;;;5070118;28;20048;-62
2021/12/22 09:13:45;;;;;;;28.60;17.23;;;-3.60;99.90;;;;;;5069112;28;20281;-62
2021/12/22 09:16:11;;;;;;;33.88;17.08;;;-3.50;99.90;;;;;;5038628;28;20044;-63
2021/12/22 09:18:38;;;;;;;28.45;16.75;;;-3.40;99.90;;;;;;5078600;28;20504;-62
2021/12/22 09:21:05;;;;;;;33.90;18.10;;;-3.30;99.90;;;;;;5076552;28;20580;-63
2021/12/22 09:23:31;;;;;;;28.92;17.98;;;-3.20;99.90;;;;;;5052935;28;20572;-63
2021/12/22 09:25:56;;;;;;;28.90;17.17;;;-3.10;99.90;;;;;;5079036;28;20442;-63
2021/12/22 09:28:22;;;;;;;30.77;17.58;;;-3.00;99.90;;;;;;5082275;28;20572;-62
2021/12/22 09:30:49;;;;;;;33.28;17.90;;;-2.90;99.90;;;;;;5077073;28;20097;-62
2021/12/22 09:33:16;;;;;;;30.88;17.52;;;-2.90;99.90;;;;;;5083730;28;20053;-62
2021/12/22 09:35:44;;;;;;;28.90;16.85;;;-2.80;99.90;;;;;;5082077;28;20056;-63
2021/12/22 09:38:10;;;;;;;31.02;18.60;;;-2.80;99.90;;;;;;5070742;28;20056;-62
2021/12/22 09:40:37;;;;;;;32.55;20.10;;;-2.70;99.90;;;;;;5075269;28;20063;-63
2021/12/22 09:43:03;;;;;;;33.72;19.77;;;-2.70;99.90;;;;;;5055865;28;20059;-62
2021/12/22 09:45:29;;;;;;;31.67;19.55;;;-2.60;99.90;;;;;;5088694;28;20095;-62
2021/12/22 09:48:29;;;;;;;36.78;20.15;;;-2.60;99.90;;;;;;5054626;28;20059;-62
2021/12/22 09:53:28;;;;;;;34.70;20.00;;;-2.50;99.90;;;;;;5051536;28;20048;-61
2021/12/22 09:55:55;;;;;;;33.22;18.20;;;-2.40;99.90;;;;;;5062816;28;20041;-62
2021/12/22 09:58:22;;;;;;;30.70;18.40;;;-2.30;99.90;;;;;;5037054;28;20131;-61
2021/12/22 10:00:49;;;;;;;38.55;21.25;;;-2.20;99.90;;;;;;5054848;28;20136;-61
2021/12/22 10:03:15;;;;;;;34.38;19.48;;;-2.10;99.90;;;;;;5064951;28;20452;-61
2021/12/22 10:05:43;;;;;;;37.80;20.77;;;-2.10;99.90;;;;;;5060502;28;20047;-60
2021/12/22 10:08:20;;;;;;;35.05;19.67;;;-2.00;99.90;;;;;;5054566;28;20060;-59
2021/12/22 10:11:10;;;;;;;35.42;19.45;;;-2.10;99.90;;;;;;5060561;28;20118;-59
2021/12/22 10:13:43;;;;;;;31.95;19.10;;;-2.00;99.90;;;;;;5050122;28;20065;-59
2021/12/22 10:16:21;;;;;;;33.70;19.85;;;-2.00;99.90;;;;;;5040138;28;20088;-58
2021/12/22 10:18:47;;;;;;;30.80;18.88;;;-1.90;99.90;;;;;;5045576;28;20056;-59
2021/12/22 10:21:21;;;;;;;29.05;17.55;;;-1.80;99.90;;;;;;5059593;28;20033;-59
2021/12/22 10:23:56;;;;;;;32.90;19.30;;;-1.60;99.90;;;;;;5045472;28;20059;-59
2021/12/22 10:26:27;;;;;;;34.58;18.42;;;-1.60;99.90;;;;;;5047396;28;20108;-59
2021/12/22 10:29:04;;;;;;;31.90;19.08;;;-1.50;99.90;;;;;;5074276;28;20055;-62
2021/12/22 10:31:45;;;;;;;31.67;18.73;;;-1.50;99.90;;;;;;5050606;28;20051;-61
2021/12/22 10:34:14;;;;;;;30.92;17.50;;;-1.40;99.90;;;;;;5053326;28;20075;-62
2021/12/22 10:36:51;;;;;;;30.05;19.17;;;-1.30;99.90;;;;;;5051109;28;20057;-60
2021/12/22 10:39:24;;;;;;;31.92;19.13;;;-1.30;99.90;;;;;;5059181;28;20114;-59
2021/12/22 10:41:51;;;;;;;26.75;17.50;;;-1.10;99.90;;;;;;5049155;28;20079;-60
2021/12/22 10:44:18;;;;;;;30.42;16.92;;;-0.90;99.90;;;;;;5055824;28;20058;-60
2021/12/22 10:46:43;;;;;;;28.27;17.63;;;-0.80;99.90;;;;;;5057679;28;20079;-60
2021/12/22 10:49:17;;;;;;;25.85;16.45;;;-0.80;99.90;;;;;;5076809;28;20368;-60
2021/12/22 10:51:58;;;;;;;28.85;15.90;;;-0.70;99.90;;;;;;5052991;28;20183;-60
2021/12/22 10:54:32;;;;;;;28.58;17.15;;;-0.50;99.90;;;;;;5060872;28;20056;-60
2021/12/22 10:56:59;;;;;;;26.83;16.55;;;-0.50;99.90;;;;;;5058908;28;20139;-60
2021/12/22 10:59:24;;;;;;;27.25;15.82;;;-0.40;99.90;;;;;;5057871;28;20055;-60
2021/12/22 11:01:53;;;;;;;27.73;17.38;;;-0.30;99.90;;;;;;5067684;28;20049;-60
2021/12/22 11:04:25;;;;;;;25.17;15.32;;;-0.20;99.90;;;;;;5070557;28;20040;-60
2021/12/22 11:06:53;;;;;;;25.20;15.07;;;-0.20;99.90;;;;;;5064332;28;20052;-60
2021/12/22 11:09:21;;;;;;;24.42;15.55;;;-0.10;99.90;;;;;;5068318;28;20387;-60
2021/12/22 11:11:49;;;;;;;26.20;15.85;;;-0.10;99.90;;;;;;5065610;28;20393;-60
2021/12/22 11:14:33;;;;;;;26.48;15.13;;;-0.10;99.90;;;;;;5071754;28;20044;-60
2021/12/22 11:17:02;;;;;;;27.77;15.88;;;-0.10;99.90;;;;;;5052811;28;20756;-60
2021/12/22 11:19:48;;;;;;;25.88;15.18;;;-0.10;99.90;;;;;;5066659;28;20090;-60
2021/12/22 11:22:16;;;;;;;24.25;14.40;;;0.00;99.90;;;;;;5055460;28;20121;-60
2021/12/22 11:24:53;;;;;;;20.50;12.80;;;-0.10;99.90;;;;;;5062768;28;20052;-60
2021/12/22 11:27:27;;;;;;;21.13;13.88;;;0.10;99.90;;;;;;5051618;28;20048;-60
2021/12/22 11:29:55;;;;;;;22.50;12.55;;;0.20;99.90;;;;;;5062283;28;20082;-61
2021/12/22 11:32:23;;;;;;;19.65;11.85;;;0.30;99.90;;;;;;5053971;28;20284;-60
2021/12/22 11:34:52;;;;;;;21.00;12.65;;;0.60;99.90;;;;;;5064295;28;20052;-60
2021/12/22 11:37:19;;;;;;;18.85;11.02;;;0.60;99.90;;;;;;5066522;28;20553;-60
2021/12/22 11:39:45;;;;;;;20.23;12.63;;;0.70;99.90;;;;;;5091219;28;20066;-60
2021/12/22 11:42:13;;;;;;;21.73;11.98;;;0.70;99.90;;;;;;5089863;28;20043;-60
2021/12/22 11:44:43;;;;;;;20.02;12.30;;;0.60;99.90;;;;;;5091568;28;20067;-60
2021/12/22 11:47:12;;;;;;;24.63;12.48;;;0.70;99.90;;;;;;5064625;28;20060;-61
2021/12/22 11:50:05;;;;;;;20.20;12.18;;;0.90;99.90;;;;;;5077476;28;20116;-61
2021/12/22 11:52:43;;;;;;;21.73;12.88;;;1.00;99.90;;;;;;5075302;28;20059;-61
2021/12/22 11:55:37;;;;;;;18.75;10.82;;;1.10;99.90;;;;;;5088922;28;20036;-61
2021/12/22 11:58:21;;;;;;;18.85;11.48;;;1.30;99.90;;;;;;5074129;28;20052;-61
2021/12/22 12:01:11;;;;;;;18.83;10.98;;;1.30;99.90;;;;;;5079885;28;20561;-61
2021/12/22 12:03:44;;;;;;;19.90;11.52;;;1.40;99.90;;;;;;5060691;28;20080;-61
2021/12/22 12:06:14;;;;;;;20.98;12.90;;;1.50;99.90;;;;;;5078938;28;20044;-62
2021/12/22 12:08:44;;;;;;;17.05;9.73;;;1.50;99.90;;;;;;5070809;28;20072;-61
2021/12/22 12:11:35;;;;;;;;;;;1.60;99.90;;;;;;5079695;28;20231;-60
2021/12/22 12:14:07;;;;;;;17.55;10.43;;;1.60;99.90;;;;;;5084651;28;19931;-60
2021/12/22 12:22:42;;;;;;;18.85;12.27;;;1.40;99.90;;;;;;5075082;27;20079;-59
2021/12/22 12:25:12;;;;;;;21.60;11.30;;;1.30;99.90;;;;;;5099763;28;20043;-59
2021/12/22 12:27:53;;;;;;;19.77;12.60;;;1.60;99.90;;;;;;5095347;27;20055;-59
2021/12/22 12:30:40;;;;;;;18.85;12.30;;;1.50;99.90;;;;;;5102725;28;21093;-59
2021/12/22 12:33:07;;;;;;;21.58;12.70;;;1.20;99.90;;;;;;5101334;27;20047;-59
2021/12/22 12:35:36;;;;;;;18.88;11.98;;;1.20;99.90;;;;;;5106150;28;20036;-59
2021/12/22 12:38:16;;;;;;;19.17;12.10;;;1.20;99.90;;;;;;5087602;28;20139;-60
2021/12/22 12:40:57;;;;;;;20.75;12.35;;;1.20;99.90;;;;;;5104423;28;20077;-59
2021/12/22 12:43:53;;;;;;;19.63;12.63;;;1.10;99.90;;;;;;5085657;28;20476;-59
2021/12/22 12:46:19;;;;;;;22.10;12.23;;;1.10;99.90;;;;;;5079665;28;20072;-59
2021/12/22 12:48:46;;;;;;;25.02;13.30;;;1.20;99.90;;;;;;5070122;28;20059;-59
2021/12/22 12:51:13;;;;;;;20.85;12.68;;;1.10;99.90;;;;;;5077278;28;20052;-59
2021/12/22 12:53:51;;;;;;;24.00;13.13;;;1.10;99.90;;;;;;5096234;27;20060;-59
2021/12/22 12:56:29;;;;;;;22.63;12.73;;;1.10;99.90;;;;;;5100592;28;20047;-61
2021/12/22 12:58:57;;;;;;;19.90;12.05;;;1.30;99.90;;;;;;5074371;28;20139;-61
2021/12/22 13:01:45;;;;;;;20.35;11.88;;;1.30;99.90;;;;;;5084170;28;20059;-61
2021/12/22 13:04:20;;;;;;;21.98;13.27;;;1.30;99.90;;;;;;5071109;28;20047;-62
2021/12/22 13:06:55;;;;;;;21.45;12.63;;;1.40;99.90;;;;;;5075919;28;20063;-61